createdAt,value
2022-10-02T00:00:55.146Z,2.97
2022-10-02T00:11:23.219Z,3.17
2022-10-02T00:21:57.184Z,2.50
2022-10-02T00:32:30.130Z,2.75
2022-10-02T00:43:04.865Z,2.40
2022-10-02T00:53:36.187Z,2.67
2022-10-02T01:03:59.444Z,2.20
2022-10-02T01:14:22.532Z,1.92
2022-10-02T01:24:50.030Z,3.75
2022-10-02T01:35:11.998Z,3.22
2022-10-02T01:45:56.612Z,2.85
2022-10-02T01:56:26.268Z,3.03
2022-10-02T02:06:56.946Z,3.33
2022-10-02T02:17:27.653Z,2.80
2022-10-02T02:27:54.974Z,3.60
2022-10-02T02:38:24.992Z,3.55
2022-10-02T02:48:53.381Z,2.60
2022-10-02T02:59:26.387Z,2.50
2022-10-02T03:10:04.745Z,3.10
2022-10-02T03:20:32.065Z,2.58
2022-10-02T03:30:56.574Z,3.30
2022-10-02T03:41:23.457Z,3.05
2022-10-02T03:51:51.840Z,2.58
2022-10-02T04:02:26.742Z,3.05
2022-10-02T04:12:53.138Z,2.30
2022-10-02T04:23:20.549Z,3.13
2022-10-02T04:33:44.212Z,3.20
2022-10-02T04:44:17.151Z,2.63
2022-10-02T04:54:58.848Z,2.80
2022-10-02T05:05:29.815Z,2.50
2022-10-02T05:16:08.049Z,2.28
2022-10-02T05:26:50.525Z,2.22
2022-10-02T05:37:30.744Z,2.05
2022-10-02T05:47:56.567Z,2.50
2022-10-02T05:58:28.544Z,2.80
2022-10-02T06:08:54.660Z,2.65
2022-10-02T06:19:24.401Z,3.45
2022-10-02T06:29:52.099Z,4.22
2022-10-02T06:40:45.920Z,2.90
2022-10-02T06:51:16.220Z,4.35
2022-10-02T07:01:51.793Z,4.63
2022-10-02T07:12:30.683Z,3.97
2022-10-02T07:23:09.955Z,4.25
2022-10-02T07:33:47.533Z,3.88
2022-10-02T07:44:27.739Z,4.32
2022-10-02T07:54:58.926Z,4.78
2022-10-02T08:05:25.654Z,3.80
2022-10-02T08:15:49.346Z,4.55
2022-10-02T08:26:17.606Z,6.05
2022-10-02T08:36:59.509Z,4.25
2022-10-02T08:47:54.516Z,3.58
2022-10-02T08:58:59.307Z,3.70
2022-10-02T09:20:45.294Z,5.05
2022-10-02T09:31:42.772Z,5.68
2022-10-02T09:42:44.017Z,3.55
2022-10-02T09:53:41.291Z,4.15
2022-10-02T10:04:54.084Z,4.82
2022-10-02T10:16:10.798Z,3.53
2022-10-02T10:27:07.980Z,4.40
2022-10-02T10:38:09.458Z,3.83
2022-10-02T10:48:52.728Z,4.65
2022-10-02T10:59:48.354Z,5.22
2022-10-02T11:21:13.665Z,3.88
2022-10-02T11:32:00.370Z,4.70
2022-10-02T11:42:45.043Z,5.60
2022-10-02T11:53:29.452Z,2.50
2022-10-02T12:04:19.279Z,2.70
2022-10-02T12:14:50.772Z,3.33
2022-10-02T12:25:39.948Z,3.63
2022-10-02T12:36:22.811Z,2.90
2022-10-02T12:47:18.853Z,4.55
2022-10-02T12:58:01.270Z,3.50
2022-10-02T13:08:41.527Z,2.80
2022-10-02T13:19:16.493Z,2.63
2022-10-02T13:29:52.656Z,3.63
2022-10-02T13:40:21.730Z,3.03
2022-10-02T13:50:50.602Z,2.25
2022-10-02T14:01:35.892Z,2.65
2022-10-02T14:12:14.623Z,2.22
2022-10-02T14:22:48.951Z,2.20
2022-10-02T14:33:21.174Z,1.23
2022-10-02T14:44:39.603Z,2.38
2022-10-02T14:55:31.465Z,1.67
2022-10-02T15:06:15.979Z,1.75
2022-10-02T15:17:11.851Z,2.40
2022-10-02T15:27:46.408Z,1.80
2022-10-02T15:38:42.267Z,2.00
2022-10-02T15:49:12.765Z,1.85
2022-10-02T16:00:22.468Z,1.65
2022-10-02T16:22:35.590Z,2.35
2022-10-02T16:45:09.852Z,3.13
2022-10-02T16:55:59.992Z,3.05
2022-10-02T17:07:02.248Z,4.47
2022-10-02T17:18:14.409Z,3.75
2022-10-02T17:29:01.164Z,3.85
2022-10-02T17:40:05.966Z,7.38
2022-10-02T17:51:54.012Z,11.73
2022-10-02T18:02:50.466Z,11.30
2022-10-02T18:13:57.374Z,11.98
2022-10-02T18:24:44.735Z,25.25
2022-10-02T18:35:48.093Z,9.70
2022-10-02T18:46:27.262Z,19.50
2022-10-02T18:57:05.874Z,7.57
2022-10-02T19:07:32.235Z,10.50
2022-10-02T19:18:08.846Z,4.90
2022-10-02T19:28:33.323Z,5.07
2022-10-02T19:39:08.129Z,8.93
2022-10-02T19:49:39.333Z,11.35
2022-10-02T20:00:18.999Z,5.63
2022-10-02T20:10:48.613Z,4.95
2022-10-02T20:21:24.478Z,3.85
2022-10-02T20:31:51.306Z,3.70
2022-10-02T20:42:19.883Z,3.13
2022-10-02T20:53:15.629Z,5.00
2022-10-02T21:03:56.616Z,4.18
2022-10-02T21:15:11.034Z,9.57
2022-10-02T21:26:03.281Z,2.43
2022-10-02T21:36:36.500Z,3.60
2022-10-02T21:47:35.588Z,7.40
2022-10-02T21:58:29.641Z,3.33
2022-10-02T22:09:07.638Z,3.55
2022-10-02T22:19:50.748Z,3.08
2022-10-02T22:30:24.355Z,3.42
2022-10-02T22:40:53.358Z,2.75
2022-10-02T22:51:25.415Z,2.92
2022-10-02T23:01:54.364Z,2.50
2022-10-02T23:12:27.999Z,2.58
2022-10-02T23:22:59.099Z,3.75
2022-10-02T23:33:28.412Z,2.65
2022-10-02T23:44:05.275Z,2.53
2022-10-02T23:54:47.500Z,2.72
